createdAt,value
2019-03-16T00:02:23.903Z,14.13
2019-03-16T00:04:56.168Z,22.30
2019-03-16T00:07:33.234Z,23.00
2019-03-16T00:10:02.250Z,14.87
2019-03-16T00:12:35.500Z,29.83
2019-03-16T00:15:09.053Z,20.50
2019-03-16T00:17:41.380Z,17.60
2019-03-16T00:20:13.908Z,16.03
2019-03-16T00:22:46.262Z,11.60
2019-03-16T00:25:18.520Z,22.87
2019-03-16T00:27:50.925Z,14.90
2019-03-16T00:30:23.281Z,14.70
2019-03-16T00:32:55.775Z,19.67
2019-03-16T00:35:27.955Z,14.93
2019-03-16T00:38:01.630Z,12.33
2019-03-16T00:40:34.105Z,16.00
2019-03-16T00:43:06.560Z,11.07
2019-03-16T00:45:38.868Z,10.97
2019-03-16T00:48:11.280Z,18.20
2019-03-16T00:50:43.531Z,13.53
2019-03-16T00:53:15.911Z,18.60
2019-03-16T00:55:48.335Z,21.57
2019-03-16T00:58:20.703Z,11.23
2019-03-16T01:00:52.890Z,17.07
2019-03-16T01:03:25.030Z,18.57
2019-03-16T01:05:57.306Z,11.63
2019-03-16T01:08:29.555Z,5.23
2019-03-16T01:11:02.006Z,15.57
2019-03-16T01:13:34.550Z,10.33
2019-03-16T01:16:06.910Z,15.70
2019-03-16T01:18:39.150Z,8.20
2019-03-16T01:21:11.360Z,22.33
2019-03-16T01:23:43.595Z,19.13
2019-03-16T01:26:15.975Z,14.83
2019-03-16T01:28:48.331Z,15.93
2019-03-16T01:31:20.750Z,7.13
2019-03-16T01:33:53.080Z,9.07
2019-03-16T01:36:25.405Z,9.27
2019-03-16T01:38:57.770Z,11.40
2019-03-16T01:41:30.250Z,11.93
2019-03-16T01:44:02.506Z,8.57
2019-03-16T01:46:34.560Z,17.20
2019-03-16T01:49:06.826Z,15.60
2019-03-16T01:51:39.101Z,14.47
2019-03-16T01:54:11.325Z,24.97
2019-03-16T01:56:43.725Z,13.67
2019-03-16T01:59:16.134Z,20.07
2019-03-16T02:01:49.483Z,13.47
2019-03-16T02:04:21.775Z,11.23
2019-03-16T02:06:54.320Z,11.57
2019-03-16T02:09:26.733Z,13.57
2019-03-16T02:12:00.509Z,15.20
2019-03-16T02:14:33.190Z,10.70
2019-03-16T02:17:05.555Z,12.30
2019-03-16T02:19:37.940Z,18.10
2019-03-16T02:22:10.065Z,10.50
2019-03-16T02:24:42.415Z,12.03
2019-03-16T02:27:14.735Z,10.10
2019-03-16T02:29:47.111Z,10.77
2019-03-16T02:32:19.591Z,12.23
2019-03-16T02:34:51.878Z,14.57
2019-03-16T02:37:24.128Z,8.80
2019-03-16T02:39:56.801Z,8.90
2019-03-16T02:42:29.165Z,10.20
2019-03-16T02:45:01.546Z,11.47
2019-03-16T02:47:33.842Z,9.10
2019-03-16T02:50:09.844Z,11.20
2019-03-16T02:52:42.254Z,4.83
2019-03-16T02:55:14.896Z,11.27
2019-03-16T02:57:47.242Z,8.53
2019-03-16T03:00:19.470Z,14.57
2019-03-16T03:02:51.741Z,6.73
2019-03-16T03:05:23.911Z,10.90
2019-03-16T03:07:57.315Z,9.57
2019-03-16T03:10:29.607Z,10.47
2019-03-16T03:13:01.731Z,8.80
2019-03-16T03:15:33.810Z,15.13
2019-03-16T03:18:05.895Z,10.13
2019-03-16T03:20:38.347Z,12.83
2019-03-16T03:23:10.707Z,12.43
2019-03-16T03:25:43.002Z,10.13
2019-03-16T03:28:15.381Z,13.67
2019-03-16T03:30:47.556Z,10.60
2019-03-16T03:33:20.001Z,11.40
2019-03-16T03:35:52.426Z,14.10
2019-03-16T03:38:24.940Z,11.23
2019-03-16T03:41:01.377Z,9.40
2019-03-16T03:43:31.182Z,8.63
2019-03-16T03:46:05.287Z,9.90
2019-03-16T03:48:37.360Z,8.97
2019-03-16T03:51:09.692Z,8.57
2019-03-16T03:53:42.072Z,10.50
2019-03-16T03:56:14.211Z,8.83
2019-03-16T03:58:46.422Z,13.20
2019-03-16T04:01:19.031Z,10.57
2019-03-16T04:03:51.324Z,13.40
2019-03-16T04:06:23.531Z,7.60
2019-03-16T04:08:55.885Z,10.53
2019-03-16T04:11:28.012Z,11.43
2019-03-16T04:14:00.476Z,13.07
2019-03-16T04:16:32.660Z,13.63
2019-03-16T04:19:05.048Z,18.90
2019-03-16T04:21:37.440Z,12.87
2019-03-16T04:24:09.997Z,9.57
2019-03-16T04:26:42.395Z,17.50
2019-03-16T04:29:14.726Z,18.13
2019-03-16T04:31:47.221Z,17.23
2019-03-16T04:34:29.252Z,7.10
2019-03-16T04:36:54.865Z,17.93
2019-03-16T04:39:27.415Z,21.37
2019-03-16T04:42:00.105Z,17.23
2019-03-16T04:44:32.871Z,20.07
2019-03-16T04:47:04.945Z,13.70
2019-03-16T04:49:37.437Z,20.23
2019-03-16T04:52:09.635Z,10.03
2019-03-16T04:54:41.765Z,16.37
2019-03-16T04:57:14.330Z,16.37
2019-03-16T04:59:46.955Z,16.47
2019-03-16T05:02:19.368Z,21.13
2019-03-16T05:04:51.726Z,17.30
2019-03-16T05:07:24.350Z,15.07
2019-03-16T05:09:56.782Z,15.83
2019-03-16T05:12:29.453Z,17.03
2019-03-16T05:15:01.705Z,18.97
2019-03-16T05:17:34.945Z,8.20
2019-03-16T05:20:12.470Z,15.53
2019-03-16T05:22:45.406Z,12.77
2019-03-16T05:25:18.171Z,21.30
2019-03-16T05:27:50.885Z,11.37
2019-03-16T05:30:23.221Z,29.97
2019-03-16T05:32:55.727Z,45.30
2019-03-16T05:35:28.510Z,37.27
2019-03-16T05:38:00.834Z,24.63
2019-03-16T05:40:33.354Z,19.10
2019-03-16T05:43:05.836Z,19.97
2019-03-16T05:45:38.643Z,22.50
2019-03-16T05:48:11.040Z,12.13
2019-03-16T05:50:43.338Z,16.53
2019-03-16T05:53:15.957Z,18.60
2019-03-16T05:55:48.195Z,18.83
2019-03-16T05:58:20.855Z,18.07
2019-03-16T06:00:53.376Z,21.80
2019-03-16T06:03:25.925Z,26.13
2019-03-16T06:05:58.476Z,23.10
2019-03-16T06:08:31.215Z,21.67
2019-03-16T06:11:03.874Z,48.40
2019-03-16T06:13:36.166Z,41.57
2019-03-16T06:16:08.606Z,30.53
2019-03-16T06:18:40.956Z,36.97
2019-03-16T06:21:13.388Z,43.73
2019-03-16T06:23:45.835Z,78.43
2019-03-16T06:26:18.150Z,62.37
2019-03-16T06:28:50.701Z,39.30
2019-03-16T06:31:23.334Z,24.27
2019-03-16T06:33:55.845Z,32.73
2019-03-16T06:36:28.232Z,76.97
2019-03-16T06:39:00.753Z,27.87
2019-03-16T06:41:33.470Z,21.87
2019-03-16T06:44:05.935Z,22.30
2019-03-16T06:46:38.490Z,22.60
2019-03-16T06:49:10.970Z,58.17
2019-03-16T06:51:43.355Z,20.50
2019-03-16T06:54:15.721Z,61.13
2019-03-16T06:56:48.288Z,104.47
2019-03-16T06:59:20.785Z,73.90
2019-03-16T07:01:53.555Z,42.37
2019-03-16T07:04:26.110Z,47.60
2019-03-16T07:06:58.606Z,19.53
2019-03-16T07:09:32.265Z,31.53
2019-03-16T07:12:04.650Z,54.03
2019-03-16T07:14:37.270Z,28.27
2019-03-16T07:17:09.621Z,35.37
2019-03-16T07:19:41.930Z,21.77
2019-03-16T07:22:14.396Z,26.47
2019-03-16T07:24:47.145Z,26.50
2019-03-16T07:27:26.165Z,20.60
2019-03-16T07:29:53.515Z,46.37
2019-03-16T07:32:25.830Z,35.37
2019-03-16T07:34:58.255Z,28.77
2019-03-16T07:37:30.625Z,27.93
2019-03-16T07:40:12.893Z,39.53
2019-03-16T07:42:45.125Z,31.47
2019-03-16T07:45:17.626Z,20.23
2019-03-16T07:47:49.920Z,34.23
2019-03-16T07:50:22.470Z,25.53
2019-03-16T07:52:55.595Z,36.13
2019-03-16T07:55:27.955Z,27.17
2019-03-16T07:58:00.400Z,29.60
2019-03-16T08:00:32.761Z,22.40
2019-03-16T08:03:04.996Z,21.00
2019-03-16T08:05:37.720Z,21.30
2019-03-16T08:08:09.979Z,30.07
2019-03-16T08:10:42.150Z,31.13
2019-03-16T08:13:14.515Z,22.57
2019-03-16T08:15:48.066Z,16.57
2019-03-16T08:18:20.645Z,26.57
2019-03-16T08:20:53.065Z,29.67
2019-03-16T08:23:25.441Z,27.57
2019-03-16T08:25:57.791Z,29.67
2019-03-16T08:28:30.261Z,27.77
2019-03-16T08:31:02.784Z,42.97
2019-03-16T08:33:35.115Z,28.57
2019-03-16T08:36:07.470Z,23.17
2019-03-16T08:38:39.833Z,27.60
2019-03-16T08:41:12.435Z,25.97
2019-03-16T08:43:45.310Z,18.43
2019-03-16T08:46:18.225Z,21.40
2019-03-16T08:48:50.855Z,23.77
2019-03-16T08:51:23.235Z,39.53
2019-03-16T08:53:55.490Z,53.97
2019-03-16T08:56:27.840Z,69.40
2019-03-16T08:59:00.481Z,53.50
2019-03-16T09:01:32.721Z,33.53
2019-03-16T09:04:04.862Z,34.30
2019-03-16T09:06:36.990Z,42.10
2019-03-16T09:09:09.515Z,31.50
2019-03-16T09:11:41.815Z,32.53
2019-03-16T09:14:14.035Z,38.20
2019-03-16T09:16:46.145Z,18.47
2019-03-16T09:19:18.405Z,11.80
2019-03-16T09:21:50.670Z,22.63
2019-03-16T09:24:22.850Z,16.70
2019-03-16T09:26:55.235Z,20.27
2019-03-16T09:29:27.295Z,31.00
2019-03-16T09:31:59.471Z,23.50
2019-03-16T09:34:31.740Z,21.80
2019-03-16T09:37:04.041Z,18.20
2019-03-16T09:39:36.220Z,18.07
2019-03-16T09:42:08.280Z,18.53
2019-03-16T09:44:40.703Z,14.27
2019-03-16T09:47:12.982Z,13.77
2019-03-16T09:49:45.020Z,18.30
2019-03-16T09:52:17.322Z,8.93
2019-03-16T09:54:50.262Z,10.67
2019-03-16T09:57:24.865Z,17.87
2019-03-16T09:59:57.181Z,17.03
2019-03-16T10:02:29.480Z,11.60
2019-03-16T10:05:01.716Z,18.50
2019-03-16T10:07:34.075Z,22.33
2019-03-16T10:10:12.576Z,23.30
2019-03-16T10:12:45.895Z,15.63
2019-03-16T10:15:18.176Z,12.40
2019-03-16T10:17:50.416Z,10.90
2019-03-16T10:20:22.495Z,17.50
2019-03-16T10:22:54.735Z,13.97
2019-03-16T10:25:27.015Z,9.93
2019-03-16T10:27:59.100Z,16.20
2019-03-16T10:30:31.256Z,11.87
2019-03-16T10:33:03.497Z,13.90
2019-03-16T10:35:35.575Z,12.83
2019-03-16T10:38:07.735Z,7.00
2019-03-16T10:40:39.915Z,21.67
2019-03-16T10:43:12.115Z,13.67
2019-03-16T10:45:44.258Z,15.10
2019-03-16T10:48:16.475Z,15.93
2019-03-16T10:50:48.636Z,11.43
2019-03-16T10:53:20.695Z,15.13
2019-03-16T10:55:52.815Z,12.27
2019-03-16T10:58:24.995Z,9.93
2019-03-16T11:00:57.091Z,16.50
2019-03-16T11:03:29.156Z,7.03
2019-03-16T11:06:01.288Z,15.97
2019-03-16T11:08:33.395Z,17.00
2019-03-16T11:11:05.476Z,15.23
2019-03-16T11:13:37.475Z,16.07
2019-03-16T11:16:09.595Z,11.40
2019-03-16T11:18:41.855Z,11.37
2019-03-16T11:21:14.135Z,11.27
2019-03-16T11:23:46.419Z,27.87
2019-03-16T11:26:18.842Z,13.70
2019-03-16T11:28:50.976Z,18.33
2019-03-16T11:31:23.276Z,29.37
2019-03-16T11:33:55.296Z,17.80
2019-03-16T11:36:27.375Z,33.03
2019-03-16T11:38:59.409Z,19.67
2019-03-16T11:41:31.777Z,16.30
2019-03-16T11:44:04.015Z,22.67
2019-03-16T11:46:37.266Z,8.73
2019-03-16T11:49:09.505Z,12.97
2019-03-16T11:51:41.775Z,18.77
2019-03-16T11:54:14.001Z,15.50
2019-03-16T11:56:46.057Z,16.37
2019-03-16T11:59:21.803Z,10.70
2019-03-16T12:01:52.058Z,17.67
2019-03-16T12:04:26.010Z,16.13
2019-03-16T12:06:58.290Z,24.83
2019-03-16T12:09:30.624Z,19.43
2019-03-16T12:12:02.895Z,19.83
2019-03-16T12:14:35.395Z,13.70
2019-03-16T12:17:07.748Z,17.10
2019-03-16T12:19:40.200Z,13.23
2019-03-16T12:22:12.910Z,14.83
2019-03-16T12:24:45.150Z,10.97
2019-03-16T12:27:17.655Z,13.77
2019-03-16T12:29:50.005Z,13.53
2019-03-16T12:32:22.370Z,13.13
2019-03-16T12:34:54.950Z,17.93
2019-03-16T12:37:27.615Z,19.17
2019-03-16T12:40:00.478Z,13.60
2019-03-16T12:42:32.915Z,23.17
2019-03-16T12:45:13.780Z,25.63
2019-03-16T12:47:46.325Z,22.20
2019-03-16T12:50:18.672Z,18.83
2019-03-16T12:52:50.975Z,18.93
2019-03-16T12:55:23.266Z,17.67
2019-03-16T12:57:55.846Z,13.97
2019-03-16T13:00:28.021Z,25.23
2019-03-16T13:03:00.695Z,25.87
2019-03-16T13:05:33.045Z,22.57
2019-03-16T13:08:05.380Z,34.73
2019-03-16T13:10:38.045Z,24.17
2019-03-16T13:13:10.337Z,24.17
2019-03-16T13:15:42.595Z,19.40
2019-03-16T13:18:14.947Z,20.00
2019-03-16T13:20:47.280Z,17.83
2019-03-16T13:23:19.607Z,19.27
2019-03-16T13:25:52.203Z,26.93
2019-03-16T13:28:24.561Z,20.70
2019-03-16T13:30:57.093Z,16.83
2019-03-16T13:33:29.778Z,25.33
2019-03-16T13:36:02.546Z,19.50
2019-03-16T13:38:34.737Z,14.77
2019-03-16T13:41:07.172Z,9.87
2019-03-16T13:43:39.446Z,17.27
2019-03-16T13:46:11.752Z,20.00
2019-03-16T13:48:44.152Z,12.80
2019-03-16T13:51:16.481Z,11.23
2019-03-16T13:53:48.915Z,14.83
2019-03-16T13:56:21.181Z,16.50
2019-03-16T13:58:53.825Z,16.43
2019-03-16T14:01:26.450Z,18.77
2019-03-16T14:03:59.015Z,26.40
2019-03-16T14:06:31.350Z,17.07
2019-03-16T14:09:04.680Z,22.90
2019-03-16T14:11:36.860Z,24.13
2019-03-16T14:14:09.506Z,15.77
2019-03-16T14:16:42.226Z,14.60
2019-03-16T14:19:14.820Z,26.60
2019-03-16T14:21:47.665Z,13.27
2019-03-16T14:24:20.457Z,11.23
2019-03-16T14:26:52.950Z,14.47
2019-03-16T14:29:25.220Z,14.47
2019-03-16T14:31:57.880Z,14.83
2019-03-16T14:34:30.305Z,10.80
2019-03-16T14:37:02.806Z,20.23
2019-03-16T14:39:35.354Z,18.80
2019-03-16T14:42:07.871Z,14.27
2019-03-16T14:44:41.420Z,15.67
2019-03-16T14:47:14.385Z,11.27
2019-03-16T14:49:46.810Z,21.97
2019-03-16T14:52:19.555Z,23.67
2019-03-16T14:54:51.825Z,18.83
2019-03-16T14:57:24.555Z,24.97
2019-03-16T14:59:59.343Z,14.27
2019-03-16T15:02:31.185Z,13.63
2019-03-16T15:05:03.770Z,21.50
2019-03-16T15:07:36.326Z,24.03
2019-03-16T15:10:11.628Z,19.27
2019-03-16T15:12:43.911Z,17.93
2019-03-16T15:15:18.991Z,208.23
2019-03-16T15:17:51.980Z,131.53
2019-03-16T15:20:24.459Z,85.63
2019-03-16T15:22:56.976Z,41.80
2019-03-16T15:25:29.320Z,90.87
2019-03-16T15:28:01.791Z,58.37
2019-03-16T15:30:34.204Z,135.13
2019-03-16T15:33:06.645Z,90.33
2019-03-16T15:35:39.475Z,57.83
2019-03-16T15:38:12.006Z,117.37
2019-03-16T15:40:44.300Z,137.40
2019-03-16T15:43:16.865Z,255.80
2019-03-16T15:45:49.847Z,276.33
2019-03-16T15:48:22.520Z,217.83
2019-03-16T15:50:55.120Z,216.73
2019-03-16T15:53:27.531Z,183.20
2019-03-16T15:56:00.016Z,97.50
2019-03-16T15:58:32.616Z,321.20
2019-03-16T16:01:04.960Z,231.97
2019-03-16T16:03:37.495Z,177.57
2019-03-16T16:06:10.095Z,279.87
2019-03-16T16:08:42.570Z,101.27
2019-03-16T16:11:14.875Z,107.53
2019-03-16T16:13:47.155Z,82.20
2019-03-16T16:16:19.366Z,91.37
2019-03-16T16:18:51.953Z,86.27
2019-03-16T16:21:24.450Z,83.43
2019-03-16T16:23:56.790Z,68.50
2019-03-16T16:26:30.060Z,50.10
2019-03-16T16:29:02.636Z,51.70
2019-03-16T16:31:35.340Z,67.53
2019-03-16T16:34:07.656Z,64.90
2019-03-16T16:36:40.116Z,46.33
2019-03-16T16:39:14.445Z,52.17
2019-03-16T16:41:47.105Z,49.53
2019-03-16T16:44:19.385Z,59.77
2019-03-16T16:46:51.796Z,130.30
2019-03-16T16:49:24.346Z,35.03
2019-03-16T16:51:56.940Z,39.07
2019-03-16T16:54:29.363Z,32.53
2019-03-16T16:57:01.776Z,41.40
2019-03-16T16:59:33.967Z,27.73
2019-03-16T17:02:06.481Z,31.73
2019-03-16T17:04:38.900Z,32.27
2019-03-16T17:07:11.065Z,34.00
2019-03-16T17:09:43.515Z,35.77
2019-03-16T17:12:16.145Z,34.10
2019-03-16T17:14:50.565Z,27.67
2019-03-16T17:17:34.529Z,26.70
2019-03-16T17:19:58.055Z,50.37
2019-03-16T17:22:30.855Z,63.90
2019-03-16T17:25:03.380Z,129.60
2019-03-16T17:27:35.739Z,100.23
2019-03-16T17:30:32.137Z,93.07
2019-03-16T17:33:04.358Z,121.23
2019-03-16T17:35:36.670Z,57.80
2019-03-16T17:38:09.315Z,63.90
2019-03-16T17:40:41.661Z,84.67
2019-03-16T17:43:14.340Z,129.50
2019-03-16T17:45:46.702Z,193.87
2019-03-16T17:48:19.201Z,79.37
2019-03-16T17:50:51.466Z,71.30
2019-03-16T17:53:25.131Z,62.47
2019-03-16T17:55:57.652Z,72.43
2019-03-16T17:58:30.396Z,55.73
2019-03-16T18:01:02.817Z,60.70
2019-03-16T18:03:36.580Z,125.90
2019-03-16T18:06:09.122Z,93.80
2019-03-16T18:08:41.460Z,73.07
2019-03-16T18:11:14.515Z,61.77
2019-03-16T18:13:46.820Z,60.83
2019-03-16T18:16:19.102Z,62.83
2019-03-16T18:18:51.766Z,71.93
2019-03-16T18:21:24.086Z,71.27
2019-03-16T18:23:56.532Z,46.77
2019-03-16T18:26:29.236Z,51.07
2019-03-16T18:29:01.670Z,35.43
2019-03-16T18:31:35.150Z,34.90
2019-03-16T18:34:08.673Z,34.80
2019-03-16T18:36:41.196Z,31.13
2019-03-16T18:39:13.925Z,25.40
2019-03-16T18:41:46.481Z,88.67
2019-03-16T18:44:18.856Z,112.83
2019-03-16T18:46:51.080Z,42.80
2019-03-16T18:49:23.376Z,32.23
2019-03-16T18:51:55.825Z,29.07
2019-03-16T18:54:28.140Z,25.10
2019-03-16T18:57:00.510Z,37.67
2019-03-16T18:59:33.186Z,24.13
2019-03-16T19:02:05.747Z,20.37
2019-03-16T19:04:38.150Z,88.63
2019-03-16T19:07:10.540Z,38.03
2019-03-16T19:09:42.830Z,28.23
2019-03-16T19:12:15.175Z,44.43
2019-03-16T19:14:47.556Z,30.60
2019-03-16T19:17:20.109Z,34.47
2019-03-16T19:19:53.680Z,26.80
2019-03-16T19:22:26.351Z,29.97
2019-03-16T19:24:59.108Z,35.87
2019-03-16T19:27:31.836Z,31.23
2019-03-16T19:30:05.080Z,22.30
2019-03-16T19:32:37.913Z,21.50
2019-03-16T19:35:10.643Z,19.57
2019-03-16T19:37:44.439Z,19.10
2019-03-16T19:40:19.309Z,26.20
2019-03-16T19:42:51.755Z,24.30
2019-03-16T19:45:24.296Z,25.20
2019-03-16T19:47:56.573Z,21.33
2019-03-16T19:50:29.200Z,25.63
2019-03-16T19:53:01.606Z,37.07
2019-03-16T19:55:34.035Z,29.27
2019-03-16T19:58:06.581Z,36.43
2019-03-16T20:00:39.086Z,36.80
2019-03-16T20:03:11.471Z,29.20
2019-03-16T20:05:44.036Z,33.17
2019-03-16T20:08:16.351Z,36.13
2019-03-16T20:10:48.923Z,52.40
2019-03-16T20:13:21.365Z,41.67
2019-03-16T20:15:54.010Z,36.27
2019-03-16T20:18:26.515Z,36.80
2019-03-16T20:20:59.000Z,28.10
2019-03-16T20:23:31.490Z,30.53
2019-03-16T20:26:03.875Z,27.37
2019-03-16T20:28:36.361Z,42.23
2019-03-16T20:31:08.906Z,34.20
2019-03-16T20:33:41.210Z,34.90
2019-03-16T20:36:13.754Z,39.63
2019-03-16T20:38:46.366Z,43.60
2019-03-16T20:41:18.940Z,34.27
2019-03-16T20:43:51.324Z,24.57
2019-03-16T20:46:23.880Z,26.17
2019-03-16T20:48:56.535Z,34.50
2019-03-16T20:51:29.170Z,29.17
2019-03-16T20:54:01.790Z,34.30
2019-03-16T20:56:34.090Z,26.03
2019-03-16T20:59:06.806Z,24.53
2019-03-16T21:01:39.088Z,30.60
2019-03-16T21:04:11.780Z,32.80
2019-03-16T21:06:44.316Z,38.93
2019-03-16T21:09:16.950Z,33.23
2019-03-16T21:11:49.635Z,31.00
2019-03-16T21:14:22.330Z,23.80
2019-03-16T21:16:54.706Z,26.27
2019-03-16T21:19:27.226Z,27.13
2019-03-16T21:22:00.640Z,34.77
2019-03-16T21:24:33.505Z,36.27
2019-03-16T21:27:05.805Z,39.17
2019-03-16T21:29:38.155Z,46.93
2019-03-16T21:32:10.796Z,56.23
2019-03-16T21:34:43.270Z,64.57
2019-03-16T21:37:15.701Z,81.97
2019-03-16T21:39:49.400Z,58.60
2019-03-16T21:42:21.781Z,54.10
2019-03-16T21:44:55.465Z,37.90
2019-03-16T21:47:27.770Z,38.63
2019-03-16T21:50:00.353Z,46.63
2019-03-16T21:52:32.930Z,39.07
2019-03-16T21:55:07.850Z,42.37
2019-03-16T21:57:40.391Z,45.33
2019-03-16T22:00:16.047Z,40.47
2019-03-16T22:02:48.518Z,47.63
2019-03-16T22:05:20.831Z,43.07
2019-03-16T22:07:53.305Z,54.53
2019-03-16T22:10:27.029Z,46.37
2019-03-16T22:12:59.580Z,41.90
2019-03-16T22:15:31.939Z,43.47
2019-03-16T22:18:04.285Z,40.87
2019-03-16T22:20:37.790Z,42.83
2019-03-16T22:23:10.441Z,50.77
2019-03-16T22:25:42.845Z,46.63
2019-03-16T22:28:15.497Z,45.13
2019-03-16T22:30:48.688Z,48.17
2019-03-16T22:33:21.139Z,44.80
2019-03-16T22:35:53.616Z,50.87
2019-03-16T22:38:26.385Z,50.27
2019-03-16T22:40:58.823Z,51.33
2019-03-16T22:43:31.120Z,51.60
2019-03-16T22:46:03.821Z,52.70
2019-03-16T22:48:36.223Z,44.07
2019-03-16T22:51:08.762Z,37.50
2019-03-16T22:53:41.180Z,33.73
2019-03-16T22:56:13.493Z,32.90
2019-03-16T22:58:47.321Z,30.10
2019-03-16T23:01:19.864Z,29.07
2019-03-16T23:03:52.505Z,34.20
2019-03-16T23:06:25.945Z,27.43
2019-03-16T23:08:58.630Z,26.27
2019-03-16T23:11:30.985Z,30.70
2019-03-16T23:14:03.365Z,36.40
2019-03-16T23:16:37.171Z,40.60
2019-03-16T23:19:09.650Z,40.47
2019-03-16T23:21:42.115Z,35.90
2019-03-16T23:24:14.410Z,34.27
2019-03-16T23:26:47.055Z,41.30
2019-03-16T23:29:19.805Z,51.00
2019-03-16T23:31:52.501Z,34.23
2019-03-16T23:34:24.997Z,38.07
2019-03-16T23:36:57.693Z,45.17
2019-03-16T23:39:30.190Z,34.83
2019-03-16T23:42:02.438Z,43.67
2019-03-16T23:44:34.815Z,35.40
2019-03-16T23:47:07.345Z,40.27
2019-03-16T23:49:42.395Z,32.90
2019-03-16T23:52:14.870Z,40.20
2019-03-16T23:54:47.340Z,34.57
2019-03-16T23:57:19.671Z,33.40
2019-03-16T23:59:52.529Z,25.50
